createdAt,value
2018-07-07T00:00:08.909Z,70.60
2018-07-07T00:01:11.254Z,70.60
2018-07-07T00:02:09.607Z,71.10
2018-07-07T00:03:06.446Z,71.10
2018-07-07T00:04:06.051Z,71.30
2018-07-07T00:05:05.470Z,71.60
2018-07-07T00:06:06.873Z,71.10
2018-07-07T00:07:06.046Z,71.00
2018-07-07T00:08:06.656Z,70.90
2018-07-07T00:09:06.188Z,70.70
2018-07-07T00:10:10.492Z,71.10
2018-07-07T00:11:10.790Z,70.60
2018-07-07T00:12:09.371Z,70.30
2018-07-07T00:13:06.107Z,70.30
2018-07-07T00:14:10.457Z,70.70
2018-07-07T00:15:05.589Z,70.40
2018-07-07T00:16:05.769Z,70.50
2018-07-07T00:17:05.933Z,70.30
2018-07-07T00:18:06.129Z,70.50
2018-07-07T00:19:05.863Z,70.30
2018-07-07T00:20:09.436Z,70.00
2018-07-07T00:21:08.404Z,70.20
2018-07-07T00:22:06.674Z,70.20
2018-07-07T00:23:05.691Z,70.20
2018-07-07T00:24:05.848Z,70.30
2018-07-07T00:25:11.307Z,70.10
2018-07-07T00:26:05.966Z,70.40
2018-07-07T00:27:09.696Z,70.60
2018-07-07T00:28:08.888Z,70.50
2018-07-07T00:29:11.323Z,70.90
2018-07-07T00:30:06.064Z,71.00
2018-07-07T00:31:05.949Z,71.50
2018-07-07T00:32:06.245Z,71.50
2018-07-07T00:33:09.296Z,71.90
2018-07-07T00:34:05.914Z,71.80
2018-07-07T00:35:05.848Z,71.50
2018-07-07T00:36:08.837Z,72.10
2018-07-07T00:37:06.309Z,72.10
2018-07-07T00:38:08.797Z,71.50
2018-07-07T00:39:16.207Z,71.50
2018-07-07T00:40:08.497Z,71.20
2018-07-07T00:41:05.941Z,71.20
2018-07-07T00:42:06.286Z,71.40
2018-07-07T00:43:10.644Z,71.30
2018-07-07T00:44:06.182Z,71.30
2018-07-07T00:45:05.625Z,71.30
2018-07-07T00:46:06.137Z,71.50
2018-07-07T00:47:05.851Z,71.40
2018-07-07T00:48:05.385Z,71.50
2018-07-07T00:49:08.396Z,71.40
2018-07-07T00:50:05.732Z,71.40
2018-07-07T00:51:06.371Z,71.40
2018-07-07T00:52:05.934Z,71.30
2018-07-07T00:53:09.226Z,71.20
2018-07-07T00:54:05.959Z,71.20
2018-07-07T00:55:08.904Z,71.50
2018-07-07T00:56:06.261Z,71.50
2018-07-07T00:57:11.378Z,71.60
2018-07-07T00:58:06.108Z,71.70
2018-07-07T00:59:05.811Z,71.60
2018-07-07T01:00:05.627Z,59.40
2018-07-07T01:01:10.560Z,72.80
2018-07-07T01:02:05.493Z,72.40
2018-07-07T01:03:10.581Z,71.90
2018-07-07T01:04:10.885Z,71.80
2018-07-07T01:05:10.629Z,72.00
2018-07-07T01:06:08.482Z,72.30
2018-07-07T01:07:05.868Z,72.30
2018-07-07T01:08:06.767Z,72.30
2018-07-07T01:09:11.125Z,71.90
2018-07-07T01:10:08.492Z,73.00
2018-07-07T01:11:05.899Z,73.00
2018-07-07T01:12:11.029Z,72.80
2018-07-07T01:13:06.123Z,72.70
2018-07-07T01:14:09.017Z,72.50
2018-07-07T01:15:09.286Z,72.80
2018-07-07T01:16:06.049Z,73.00
2018-07-07T01:17:09.013Z,72.70
2018-07-07T01:18:06.292Z,72.80
2018-07-07T01:19:05.525Z,72.80
2018-07-07T01:20:06.195Z,73.20
2018-07-07T01:21:10.975Z,72.70
2018-07-07T01:22:05.729Z,72.30
2018-07-07T01:23:05.920Z,72.30
2018-07-07T01:24:06.145Z,72.40
2018-07-07T01:25:06.398Z,72.50
2018-07-07T01:26:06.496Z,72.30
2018-07-07T01:27:09.184Z,72.10
2018-07-07T01:28:05.538Z,72.20
2018-07-07T01:29:05.729Z,72.30
2018-07-07T01:30:06.360Z,72.40
2018-07-07T01:31:10.711Z,72.10
2018-07-07T01:32:06.153Z,72.10
2018-07-07T01:33:05.693Z,72.10
2018-07-07T01:34:06.634Z,71.80
2018-07-07T01:35:06.391Z,71.70
2018-07-07T01:36:05.866Z,71.60
2018-07-07T01:37:05.616Z,71.80
2018-07-07T01:38:05.897Z,72.20
2018-07-07T01:39:05.470Z,71.90
2018-07-07T01:40:08.287Z,72.10
2018-07-07T01:41:06.093Z,72.10
2018-07-07T01:42:06.011Z,72.30
2018-07-07T01:43:06.285Z,72.10
2018-07-07T01:44:06.271Z,72.10
2018-07-07T01:45:05.850Z,72.10
2018-07-07T01:46:09.339Z,71.90
2018-07-07T01:47:08.620Z,72.20
2018-07-07T01:48:08.525Z,72.30
2018-07-07T01:49:06.007Z,72.30
2018-07-07T01:50:06.075Z,72.40
2018-07-07T01:51:06.216Z,72.30
2018-07-07T01:52:06.388Z,72.30
2018-07-07T01:53:05.560Z,72.40
2018-07-07T01:54:05.958Z,72.10
2018-07-07T01:55:06.782Z,72.10
2018-07-07T01:56:10.745Z,72.30
2018-07-07T01:57:11.269Z,72.30
2018-07-07T01:58:08.575Z,72.10
2018-07-07T01:59:11.173Z,71.70
2018-07-07T02:00:10.624Z,71.70
2018-07-07T02:01:11.051Z,71.90
2018-07-07T02:02:06.302Z,71.90
2018-07-07T02:03:08.746Z,71.80
2018-07-07T02:04:06.112Z,71.80
2018-07-07T02:05:06.405Z,72.00
2018-07-07T02:06:09.464Z,72.50
2018-07-07T02:07:11.364Z,72.20
2018-07-07T02:08:05.916Z,72.20
2018-07-07T02:09:08.618Z,72.70
2018-07-07T02:10:08.973Z,72.60
2018-07-07T02:11:08.702Z,72.60
2018-07-07T02:12:06.368Z,72.60
2018-07-07T02:13:05.824Z,72.40
2018-07-07T02:14:11.525Z,72.90
2018-07-07T02:15:08.732Z,72.60
2018-07-07T02:16:11.156Z,72.60
2018-07-07T02:17:05.522Z,72.60
2018-07-07T02:18:06.403Z,72.80
2018-07-07T02:19:05.725Z,72.90
2018-07-07T02:20:06.352Z,73.00
2018-07-07T02:21:10.521Z,72.70
2018-07-07T02:22:08.751Z,72.20
2018-07-07T02:23:08.863Z,72.00
2018-07-07T02:24:11.387Z,71.90
2018-07-07T02:25:05.655Z,71.80
2018-07-07T02:26:05.981Z,72.10
2018-07-07T02:27:10.924Z,72.00
2018-07-07T02:28:10.976Z,72.20
2018-07-07T02:29:16.054Z,72.20
2018-07-07T02:30:05.375Z,72.40
2018-07-07T02:31:05.685Z,72.60
2018-07-07T02:32:06.263Z,72.90
2018-07-07T02:33:06.351Z,73.30
2018-07-07T02:34:05.861Z,73.60
2018-07-07T02:35:06.519Z,73.50
2018-07-07T02:36:11.463Z,73.70
2018-07-07T02:37:06.151Z,73.70
2018-07-07T02:38:05.814Z,73.40
2018-07-07T02:39:06.416Z,73.60
2018-07-07T02:40:08.233Z,73.50
2018-07-07T02:41:05.774Z,73.50
2018-07-07T02:42:06.426Z,73.10
2018-07-07T02:43:05.755Z,73.10
2018-07-07T02:44:06.241Z,73.10
2018-07-07T02:45:06.190Z,73.00
2018-07-07T02:46:05.962Z,72.90
2018-07-07T02:47:06.274Z,73.20
2018-07-07T02:48:06.037Z,73.50
2018-07-07T02:49:08.267Z,73.40
2018-07-07T02:50:10.703Z,73.40
2018-07-07T02:51:11.166Z,73.40
2018-07-07T02:52:06.605Z,73.40
2018-07-07T02:53:05.559Z,73.60
2018-07-07T02:54:08.376Z,73.70
2018-07-07T02:55:10.853Z,73.80
2018-07-07T02:56:08.818Z,73.80
2018-07-07T02:57:11.149Z,73.70
2018-07-07T02:58:05.459Z,73.70
2018-07-07T02:59:06.242Z,73.60
2018-07-07T03:00:10.484Z,73.80
2018-07-07T03:01:05.906Z,73.80
2018-07-07T03:02:11.198Z,73.90
2018-07-07T03:03:10.604Z,74.00
2018-07-07T03:04:10.859Z,74.00
2018-07-07T03:05:06.299Z,74.00
2018-07-07T03:06:05.937Z,73.70
2018-07-07T03:07:06.232Z,73.60
2018-07-07T03:08:11.208Z,73.60
2018-07-07T03:09:11.166Z,73.60
2018-07-07T03:10:06.322Z,73.60
2018-07-07T03:11:05.860Z,73.70
2018-07-07T03:12:06.013Z,73.80
2018-07-07T03:13:06.053Z,73.60
2018-07-07T03:14:06.176Z,73.90
2018-07-07T03:15:08.107Z,73.50
2018-07-07T03:16:05.514Z,73.50
2018-07-07T03:17:06.604Z,73.50
2018-07-07T03:18:11.498Z,73.50
2018-07-07T03:19:05.861Z,73.50
2018-07-07T03:20:08.462Z,73.50
2018-07-07T03:21:09.166Z,73.50
2018-07-07T03:22:05.988Z,73.50
2018-07-07T03:23:09.997Z,74.40
2018-07-07T03:24:06.237Z,74.40
2018-07-07T03:25:09.068Z,74.40
2018-07-07T03:26:08.800Z,74.20
2018-07-07T03:27:06.601Z,74.20
2018-07-07T03:28:09.279Z,74.80
2018-07-07T03:29:10.627Z,74.80
2018-07-07T03:30:10.852Z,74.50
2018-07-07T03:31:06.096Z,74.50
2018-07-07T03:32:09.497Z,74.50
2018-07-07T03:33:06.299Z,74.40
2018-07-07T03:34:08.550Z,74.50
2018-07-07T03:35:08.577Z,74.50
2018-07-07T03:36:05.570Z,74.40
2018-07-07T03:37:06.265Z,74.50
2018-07-07T03:38:09.178Z,74.50
2018-07-07T03:39:08.942Z,74.30
2018-07-07T03:40:05.676Z,74.30
2018-07-07T03:41:06.210Z,74.30
2018-07-07T03:42:05.735Z,74.30
2018-07-07T03:43:08.746Z,74.80
2018-07-07T03:44:06.680Z,74.80
2018-07-07T03:45:06.220Z,74.80
2018-07-07T03:46:06.676Z,74.60
2018-07-07T03:47:06.302Z,74.70
2018-07-07T03:48:05.678Z,74.60
2018-07-07T03:49:10.695Z,74.20
2018-07-07T03:50:06.106Z,74.10
2018-07-07T03:51:10.690Z,74.00
2018-07-07T03:52:05.630Z,74.10
2018-07-07T03:53:05.954Z,74.30
2018-07-07T03:54:06.438Z,74.30
2018-07-07T03:55:08.083Z,74.10
2018-07-07T03:56:05.767Z,74.10
2018-07-07T03:57:05.766Z,73.90
2018-07-07T03:58:06.602Z,74.00
2018-07-07T03:59:05.529Z,74.10
2018-07-07T04:00:05.757Z,73.90
2018-07-07T04:01:06.418Z,73.90
2018-07-07T04:02:06.133Z,73.50
2018-07-07T04:03:09.407Z,72.90
2018-07-07T04:04:05.679Z,72.90
2018-07-07T04:05:06.004Z,70.70
2018-07-07T04:06:08.602Z,70.20
2018-07-07T04:07:07.047Z,70.20
2018-07-07T04:08:06.212Z,69.70
2018-07-07T04:09:09.833Z,68.50
2018-07-07T04:10:06.267Z,68.50
2018-07-07T04:11:08.814Z,67.10
2018-07-07T04:12:06.439Z,66.90
2018-07-07T04:13:05.605Z,66.00
2018-07-07T04:14:09.151Z,63.90
2018-07-07T04:15:05.703Z,63.90
2018-07-07T04:16:05.784Z,63.30
2018-07-07T04:17:05.555Z,62.80
2018-07-07T04:18:05.980Z,62.50
2018-07-07T04:19:08.707Z,61.20
2018-07-07T04:20:11.322Z,61.20
2018-07-07T04:21:05.929Z,60.10
2018-07-07T04:22:06.166Z,59.60
2018-07-07T04:23:11.410Z,59.00
2018-07-07T04:24:05.827Z,59.00
2018-07-07T04:25:06.425Z,58.80
2018-07-07T04:26:09.446Z,57.60
2018-07-07T04:27:05.969Z,57.60
2018-07-07T04:28:06.159Z,56.80
2018-07-07T04:29:08.440Z,55.90
2018-07-07T04:30:06.192Z,55.80
2018-07-07T04:31:05.984Z,55.40
2018-07-07T04:32:06.613Z,54.90
2018-07-07T04:33:06.654Z,54.50
2018-07-07T04:34:06.208Z,53.90
2018-07-07T04:35:05.798Z,53.20
2018-07-07T04:36:05.900Z,52.30
2018-07-07T04:37:05.796Z,52.00
2018-07-07T04:38:08.570Z,50.50
2018-07-07T04:39:08.589Z,50.90
2018-07-07T04:40:06.072Z,51.00
2018-07-07T04:41:05.910Z,50.20
2018-07-07T04:42:06.627Z,50.40
2018-07-07T04:43:05.881Z,50.70
2018-07-07T04:44:06.134Z,50.70
2018-07-07T04:45:06.011Z,51.20
2018-07-07T04:46:06.213Z,51.50
2018-07-07T04:47:08.813Z,51.70
2018-07-07T04:48:06.425Z,51.70
2018-07-07T04:49:07.318Z,51.50
2018-07-07T04:50:06.148Z,51.30
2018-07-07T04:51:09.142Z,50.90
2018-07-07T04:52:05.911Z,50.80
2018-07-07T04:53:10.400Z,50.60
2018-07-07T04:54:06.083Z,50.50
2018-07-07T04:55:06.211Z,50.00
2018-07-07T04:56:08.930Z,49.30
2018-07-07T04:57:06.292Z,49.30
2018-07-07T04:58:06.511Z,49.30
2018-07-07T04:59:06.316Z,48.80
2018-07-07T05:00:08.206Z,48.60
2018-07-07T05:01:06.176Z,48.60
2018-07-07T05:02:08.656Z,47.30
2018-07-07T05:03:06.599Z,47.30
2018-07-07T05:04:08.934Z,46.40
2018-07-07T05:05:06.253Z,46.40
2018-07-07T05:06:08.813Z,45.90
2018-07-07T05:07:09.621Z,45.90
2018-07-07T05:08:06.242Z,45.90
2018-07-07T05:09:09.898Z,45.00
2018-07-07T05:10:10.647Z,45.00
2018-07-07T05:11:06.229Z,44.30
2018-07-07T05:12:06.625Z,44.00
2018-07-07T05:13:06.344Z,43.30
2018-07-07T05:14:05.886Z,43.40
2018-07-07T05:15:06.207Z,43.80
2018-07-07T05:16:10.909Z,43.80
2018-07-07T05:17:10.835Z,44.20
2018-07-07T05:18:06.151Z,44.20
2018-07-07T05:19:05.592Z,44.20
2018-07-07T05:20:06.545Z,44.00
2018-07-07T05:21:06.256Z,43.80
2018-07-07T05:22:13.278Z,43.70
2018-07-07T05:23:09.023Z,43.60
2018-07-07T05:24:08.340Z,43.60
2018-07-07T05:25:06.086Z,43.60
2018-07-07T05:26:05.555Z,43.60
2018-07-07T05:27:08.603Z,43.40
2018-07-07T05:28:05.902Z,43.40
2018-07-07T05:29:06.520Z,43.20
2018-07-07T05:30:05.827Z,43.00
2018-07-07T05:31:08.618Z,42.80
2018-07-07T05:32:16.145Z,42.80
2018-07-07T05:33:07.990Z,43.10
2018-07-07T05:34:06.302Z,43.20
2018-07-07T05:35:05.825Z,43.30
2018-07-07T05:36:09.201Z,42.90
2018-07-07T05:37:15.670Z,42.80
2018-07-07T05:38:06.152Z,42.50
2018-07-07T05:39:10.706Z,41.90
2018-07-07T05:40:09.382Z,41.20
2018-07-07T05:41:05.754Z,41.20
2018-07-07T05:42:06.494Z,41.20
2018-07-07T05:43:06.346Z,41.20
2018-07-07T05:44:05.599Z,40.60
2018-07-07T05:45:05.687Z,40.10
2018-07-07T05:46:06.266Z,40.10
2018-07-07T05:47:05.937Z,40.00
2018-07-07T05:48:05.803Z,39.60
2018-07-07T05:49:08.952Z,39.50
2018-07-07T05:50:06.105Z,39.50
2018-07-07T05:51:08.036Z,38.50
2018-07-07T05:52:05.424Z,38.50
2018-07-07T05:53:12.118Z,37.50
2018-07-07T05:54:05.461Z,37.40
2018-07-07T05:55:09.195Z,37.00
2018-07-07T05:56:06.043Z,37.00
2018-07-07T05:57:09.370Z,36.40
2018-07-07T05:58:13.391Z,35.90
2018-07-07T05:59:10.918Z,35.90
2018-07-07T06:00:10.930Z,35.90
2018-07-07T06:01:11.110Z,35.80
2018-07-07T06:02:06.447Z,35.90
2018-07-07T06:03:05.710Z,35.50
2018-07-07T06:04:06.282Z,35.50
2018-07-07T06:05:09.088Z,34.70
2018-07-07T06:06:05.520Z,34.60
2018-07-07T06:07:11.161Z,33.50
2018-07-07T06:08:06.646Z,33.60
2018-07-07T06:09:11.090Z,32.50
2018-07-07T06:10:06.198Z,32.50
2018-07-07T06:11:06.565Z,32.80
2018-07-07T06:12:06.537Z,33.00
2018-07-07T06:13:06.156Z,32.40
2018-07-07T06:14:18.605Z,32.10
2018-07-07T06:15:09.388Z,32.20
2018-07-07T06:16:10.788Z,32.20
2018-07-07T06:17:05.897Z,31.80
2018-07-07T06:18:10.754Z,31.30
2018-07-07T06:19:11.141Z,31.50
2018-07-07T06:20:11.455Z,31.00
2018-07-07T06:21:05.818Z,31.00
2018-07-07T06:22:06.126Z,31.40
2018-07-07T06:23:05.864Z,31.40
2018-07-07T06:24:06.426Z,30.60
2018-07-07T06:25:06.091Z,30.10
2018-07-07T06:26:08.222Z,30.90
2018-07-07T06:27:08.531Z,30.90
2018-07-07T06:28:07.396Z,30.90
2018-07-07T06:29:06.369Z,31.10
2018-07-07T06:30:06.125Z,31.10
2018-07-07T06:31:05.638Z,30.80
2018-07-07T06:32:08.544Z,29.50
2018-07-07T06:33:06.073Z,29.40
2018-07-07T06:34:11.344Z,30.10
2018-07-07T06:35:06.290Z,30.10
2018-07-07T06:36:08.964Z,30.10
2018-07-07T06:37:06.356Z,30.10
2018-07-07T06:38:10.695Z,29.90
2018-07-07T06:39:05.903Z,30.00
2018-07-07T06:40:11.019Z,30.00
2018-07-07T06:41:06.769Z,30.00
2018-07-07T06:42:08.759Z,30.30
2018-07-07T06:43:06.149Z,30.30
2018-07-07T06:44:06.366Z,30.30
2018-07-07T06:45:05.976Z,30.30
2018-07-07T06:46:05.841Z,30.30
2018-07-07T06:47:06.595Z,30.60
2018-07-07T06:48:09.138Z,30.40
2018-07-07T06:49:06.543Z,30.40
2018-07-07T06:50:13.573Z,29.90
2018-07-07T06:51:05.911Z,29.90
2018-07-07T06:52:06.380Z,28.60
2018-07-07T06:53:05.662Z,28.80
2018-07-07T06:54:06.492Z,29.10
2018-07-07T06:55:06.018Z,29.00
2018-07-07T06:56:05.369Z,29.00
2018-07-07T06:57:06.087Z,29.40
2018-07-07T06:58:05.876Z,29.60
2018-07-07T06:59:10.843Z,28.40
2018-07-07T07:00:06.412Z,28.40
2018-07-07T07:01:05.730Z,29.00
2018-07-07T07:02:05.553Z,28.90
2018-07-07T07:03:10.696Z,28.10
2018-07-07T07:04:10.971Z,28.00
2018-07-07T07:05:11.106Z,28.20
2018-07-07T07:06:11.141Z,28.10
2018-07-07T07:07:11.329Z,27.80
2018-07-07T07:08:10.709Z,27.90
2018-07-07T07:09:05.801Z,27.80
2018-07-07T07:10:10.617Z,28.20
2018-07-07T07:11:09.033Z,28.40
2018-07-07T07:12:05.824Z,28.40
2018-07-07T07:13:05.725Z,28.40
2018-07-07T07:14:05.866Z,28.50
2018-07-07T07:15:06.582Z,28.30
2018-07-07T07:16:06.066Z,27.60
2018-07-07T07:17:09.108Z,26.50
2018-07-07T07:18:05.605Z,26.60
2018-07-07T07:19:06.359Z,26.70
2018-07-07T07:20:06.021Z,27.10
2018-07-07T07:21:05.527Z,27.00
2018-07-07T07:22:06.133Z,26.60
2018-07-07T07:23:06.293Z,26.90
2018-07-07T07:24:07.145Z,26.50
2018-07-07T07:25:10.803Z,27.10
2018-07-07T07:26:06.564Z,27.10
2018-07-07T07:27:06.277Z,26.60
2018-07-07T07:28:06.105Z,26.30
2018-07-07T07:29:06.043Z,26.50
2018-07-07T07:30:06.350Z,26.90
2018-07-07T07:31:09.341Z,26.90
2018-07-07T07:32:08.736Z,26.90
2018-07-07T07:33:06.479Z,26.90
2018-07-07T07:34:08.605Z,27.10
2018-07-07T07:35:09.616Z,26.70
2018-07-07T07:36:06.010Z,26.70
2018-07-07T07:37:09.528Z,27.10
2018-07-07T07:38:09.324Z,26.40
2018-07-07T07:39:10.752Z,26.30
2018-07-07T07:40:10.829Z,25.70
2018-07-07T07:41:07.922Z,24.80
2018-07-07T07:42:06.401Z,24.80
2018-07-07T07:43:08.478Z,25.30
2018-07-07T07:44:10.978Z,25.10
2018-07-07T07:45:09.177Z,24.90
2018-07-07T07:46:05.864Z,24.90
2018-07-07T07:47:05.992Z,25.20
2018-07-07T07:48:11.320Z,25.30
2018-07-07T07:49:08.857Z,24.20
2018-07-07T07:50:06.218Z,24.20
2018-07-07T07:51:10.874Z,23.60
2018-07-07T07:52:09.595Z,23.40
2018-07-07T07:53:11.212Z,23.50
2018-07-07T07:54:05.817Z,24.10
2018-07-07T07:55:06.861Z,24.60
2018-07-07T07:56:05.671Z,24.40
2018-07-07T07:57:06.542Z,23.30
2018-07-07T07:58:10.837Z,22.90
2018-07-07T07:59:06.219Z,22.70
2018-07-07T08:00:08.978Z,23.60
2018-07-07T08:01:09.125Z,23.60
2018-07-07T08:02:13.117Z,23.40
2018-07-07T08:03:05.543Z,23.40
2018-07-07T08:04:05.883Z,23.30
2018-07-07T08:05:08.945Z,23.60
2018-07-07T08:06:05.826Z,23.60
2018-07-07T08:07:05.988Z,23.80
2018-07-07T08:08:06.350Z,23.40
2018-07-07T08:09:07.932Z,23.90
2018-07-07T08:10:09.325Z,24.30
2018-07-07T08:11:06.126Z,24.30
2018-07-07T08:12:10.036Z,23.70
2018-07-07T08:13:11.119Z,23.70
2018-07-07T08:14:06.739Z,23.20
2018-07-07T08:15:06.583Z,23.30
2018-07-07T08:16:05.898Z,23.30
2018-07-07T08:17:05.919Z,20.60
2018-07-07T08:18:11.006Z,21.10
2018-07-07T08:19:10.567Z,20.80
2018-07-07T08:20:06.392Z,20.80
2018-07-07T08:21:08.278Z,20.70
2018-07-07T08:22:05.657Z,20.70
2018-07-07T08:23:06.031Z,20.60
2018-07-07T08:24:10.700Z,20.60
2018-07-07T08:25:05.944Z,19.30
2018-07-07T08:26:06.539Z,18.80
2018-07-07T08:27:08.018Z,19.30
2018-07-07T08:28:05.372Z,19.30
2018-07-07T08:29:05.890Z,19.60
2018-07-07T08:30:05.394Z,19.60
2018-07-07T08:31:06.203Z,19.60
2018-07-07T08:32:06.188Z,19.50
2018-07-07T08:33:05.517Z,20.20
2018-07-07T08:34:05.978Z,20.60
2018-07-07T08:35:08.732Z,20.20
2018-07-07T08:36:06.170Z,20.20
2018-07-07T08:37:06.312Z,20.00
2018-07-07T08:38:10.961Z,20.20
2018-07-07T08:39:06.782Z,20.20
2018-07-07T08:40:08.454Z,19.50
2018-07-07T08:41:08.851Z,21.00
2018-07-07T08:42:10.268Z,20.90
2018-07-07T08:43:05.741Z,20.80
2018-07-07T08:44:05.718Z,20.30
2018-07-07T08:45:06.123Z,19.90
2018-07-07T08:46:08.880Z,20.70
2018-07-07T08:47:06.688Z,20.70
2018-07-07T08:48:08.679Z,20.40
2018-07-07T08:49:06.725Z,20.40
2018-07-07T08:50:10.704Z,18.70
2018-07-07T08:51:05.939Z,18.70
2018-07-07T08:52:05.828Z,19.10
2018-07-07T08:53:05.594Z,18.80
2018-07-07T08:54:06.444Z,18.80
2018-07-07T08:55:06.113Z,18.30
2018-07-07T08:56:06.029Z,17.90
2018-07-07T08:57:07.986Z,18.40
2018-07-07T08:58:11.344Z,18.40
2018-07-07T08:59:11.457Z,19.00
2018-07-07T09:00:05.686Z,19.10
2018-07-07T09:01:06.247Z,19.20
2018-07-07T09:02:05.960Z,19.70
2018-07-07T09:03:06.948Z,19.80
2018-07-07T09:04:06.244Z,18.90
2018-07-07T09:05:05.919Z,19.00
2018-07-07T09:06:09.252Z,18.90
2018-07-07T09:07:09.052Z,18.80
2018-07-07T09:08:05.474Z,18.80
2018-07-07T09:09:06.407Z,18.20
2018-07-07T09:10:05.702Z,18.60
2018-07-07T09:11:08.752Z,18.90
2018-07-07T09:12:06.182Z,18.90
2018-07-07T09:13:05.718Z,19.00
2018-07-07T09:14:06.333Z,19.20
2018-07-07T09:15:09.463Z,18.60
2018-07-07T09:16:06.022Z,18.60
2018-07-07T09:17:11.333Z,19.00
2018-07-07T09:18:05.707Z,19.00
2018-07-07T09:19:05.983Z,18.80
2018-07-07T09:20:05.775Z,18.30
2018-07-07T09:21:09.299Z,18.40
2018-07-07T09:22:06.364Z,18.40
2018-07-07T09:23:08.868Z,18.60
2018-07-07T09:24:08.884Z,18.30
2018-07-07T09:25:06.221Z,18.30
2018-07-07T09:26:08.773Z,18.30
2018-07-07T09:27:11.186Z,18.40
2018-07-07T09:28:11.301Z,18.80
2018-07-07T09:29:06.719Z,18.90
2018-07-07T09:30:06.080Z,19.20
2018-07-07T09:31:06.414Z,17.30
2018-07-07T09:32:06.721Z,17.90
2018-07-07T09:33:09.109Z,18.30
2018-07-07T09:34:05.438Z,18.30
2018-07-07T09:35:08.866Z,18.20
2018-07-07T09:36:18.327Z,17.10
2018-07-07T09:37:10.888Z,17.00
2018-07-07T09:38:09.380Z,17.00
2018-07-07T09:39:10.785Z,17.00
2018-07-07T09:40:10.937Z,17.20
2018-07-07T09:41:06.338Z,16.60
2018-07-07T09:42:10.988Z,16.50
2018-07-07T09:43:05.396Z,16.50
2018-07-07T09:44:06.554Z,16.90
2018-07-07T09:45:06.312Z,16.90
2018-07-07T09:46:05.724Z,16.40
2018-07-07T09:47:06.196Z,16.70
2018-07-07T09:48:05.755Z,17.00
2018-07-07T09:49:06.640Z,16.90
2018-07-07T09:50:11.309Z,15.10
2018-07-07T09:51:05.859Z,15.10
2018-07-07T09:52:07.381Z,15.50
2018-07-07T09:53:08.948Z,15.70
2018-07-07T09:54:06.662Z,15.70
2018-07-07T09:55:09.037Z,16.10
2018-07-07T09:56:06.416Z,16.20
2018-07-07T09:57:05.948Z,15.90
2018-07-07T09:58:05.579Z,15.10
2018-07-07T09:59:08.572Z,15.90
2018-07-07T10:00:06.312Z,15.90
2018-07-07T10:01:10.852Z,16.10
2018-07-07T10:02:06.487Z,15.70
2018-07-07T10:03:06.206Z,15.60
2018-07-07T10:04:06.039Z,15.80
2018-07-07T10:05:06.366Z,16.10
2018-07-07T10:06:06.096Z,16.80
2018-07-07T10:07:08.619Z,16.80
2018-07-07T10:08:09.509Z,16.70
2018-07-07T10:09:08.579Z,16.90
2018-07-07T10:10:06.004Z,16.90
2018-07-07T10:11:06.044Z,16.80
2018-07-07T10:12:05.385Z,16.30
2018-07-07T10:13:05.600Z,15.80
2018-07-07T10:14:09.440Z,15.10
2018-07-07T10:15:08.541Z,14.80
2018-07-07T10:16:08.727Z,15.10
2018-07-07T10:17:06.192Z,15.10
2018-07-07T10:18:10.680Z,14.70
2018-07-07T10:19:05.889Z,15.10
2018-07-07T10:20:05.569Z,14.80
2018-07-07T10:21:05.601Z,15.20
2018-07-07T10:22:06.473Z,15.10
2018-07-07T10:23:11.357Z,14.90
2018-07-07T10:24:10.723Z,14.90
2018-07-07T10:25:06.259Z,14.50
2018-07-07T10:26:06.433Z,14.20
2018-07-07T10:27:06.052Z,13.80
2018-07-07T10:28:06.152Z,13.50
2018-07-07T10:29:06.028Z,12.90
2018-07-07T10:30:07.965Z,12.90
2018-07-07T10:31:06.638Z,12.90
2018-07-07T10:32:06.345Z,12.70
2018-07-07T10:33:06.731Z,12.40
2018-07-07T10:34:10.804Z,12.70
2018-07-07T10:35:07.213Z,12.70
2018-07-07T10:36:09.106Z,13.90
2018-07-07T10:37:08.837Z,14.10
2018-07-07T10:38:06.236Z,14.10
2018-07-07T10:39:06.048Z,14.40
2018-07-07T10:40:05.742Z,14.50
2018-07-07T10:41:06.259Z,13.90
2018-07-07T10:42:05.650Z,14.40
2018-07-07T10:43:05.470Z,13.80
2018-07-07T10:44:06.078Z,14.60
2018-07-07T10:45:08.829Z,14.10
2018-07-07T10:46:06.268Z,13.90
2018-07-07T10:47:10.871Z,13.90
2018-07-07T10:48:08.771Z,14.70
2018-07-07T10:49:08.856Z,14.90
2018-07-07T10:50:06.664Z,14.90
2018-07-07T10:51:06.148Z,14.70
2018-07-07T10:52:10.983Z,14.60
2018-07-07T10:53:05.784Z,14.90
2018-07-07T10:54:10.710Z,13.90
2018-07-07T10:55:10.230Z,14.10
2018-07-07T10:56:05.735Z,14.10
2018-07-07T10:57:11.365Z,14.50
2018-07-07T10:58:05.455Z,14.90
2018-07-07T10:59:05.600Z,14.80
2018-07-07T11:00:09.370Z,15.30
2018-07-07T11:01:08.933Z,15.50
2018-07-07T11:02:08.782Z,15.60
2018-07-07T11:03:09.173Z,15.40
2018-07-07T11:04:06.830Z,15.40
2018-07-07T11:05:07.316Z,15.40
2018-07-07T11:06:08.232Z,15.10
2018-07-07T11:07:05.574Z,15.10
2018-07-07T11:08:09.208Z,15.30
2018-07-07T11:09:08.956Z,14.80
2018-07-07T11:10:11.352Z,14.70
2018-07-07T11:11:05.998Z,15.10
2018-07-07T11:12:06.820Z,15.20
2018-07-07T11:13:08.741Z,15.00
2018-07-07T11:14:08.723Z,14.30
2018-07-07T11:15:06.072Z,14.00
2018-07-07T11:16:05.484Z,14.80
2018-07-07T11:17:06.245Z,14.80
2018-07-07T11:18:07.016Z,14.60
2018-07-07T11:19:05.462Z,14.60
2018-07-07T11:20:05.809Z,14.90
2018-07-07T11:21:08.440Z,14.50
2018-07-07T11:22:10.992Z,14.40
2018-07-07T11:23:05.992Z,14.30
2018-07-07T11:24:05.540Z,14.50
2018-07-07T11:25:06.222Z,14.50
2018-07-07T11:26:05.616Z,14.80
2018-07-07T11:27:05.808Z,14.80
2018-07-07T11:28:06.022Z,14.80
2018-07-07T11:29:05.755Z,14.60
2018-07-07T11:30:09.052Z,14.20
2018-07-07T11:31:09.761Z,14.50
2018-07-07T11:32:06.295Z,14.50
2018-07-07T11:33:06.195Z,13.50
2018-07-07T11:34:05.416Z,13.90
2018-07-07T11:35:09.181Z,14.80
2018-07-07T11:36:06.044Z,14.70
2018-07-07T11:37:06.442Z,14.30
2018-07-07T11:38:05.784Z,14.20
2018-07-07T11:39:11.435Z,14.50
2018-07-07T11:40:06.059Z,14.40
2018-07-07T11:41:10.709Z,14.00
2018-07-07T11:42:06.102Z,14.30
2018-07-07T11:43:06.121Z,14.50
2018-07-07T11:44:08.116Z,14.60
2018-07-07T11:45:08.769Z,14.90
2018-07-07T11:46:06.253Z,14.90
2018-07-07T11:47:05.869Z,15.40
2018-07-07T11:48:05.478Z,15.20
2018-07-07T11:49:05.728Z,14.30
2018-07-07T11:50:06.169Z,14.60
2018-07-07T11:51:16.013Z,15.70
2018-07-07T11:52:05.582Z,15.70
2018-07-07T11:53:06.512Z,15.30
2018-07-07T11:54:06.339Z,15.40
2018-07-07T11:55:05.790Z,15.40
2018-07-07T11:56:06.567Z,14.60
2018-07-07T11:57:08.910Z,14.20
2018-07-07T11:58:11.398Z,13.50
2018-07-07T11:59:05.808Z,13.50
2018-07-07T12:00:09.334Z,13.50
2018-07-07T12:01:06.910Z,13.50
2018-07-07T12:02:05.632Z,13.40
2018-07-07T12:03:05.642Z,13.50
2018-07-07T12:04:05.783Z,13.40
2018-07-07T12:05:05.859Z,13.60
2018-07-07T12:06:06.883Z,13.50
2018-07-07T12:07:05.945Z,13.30
2018-07-07T12:08:14.731Z,13.20
2018-07-07T12:09:06.451Z,13.70
2018-07-07T12:10:06.418Z,14.30
2018-07-07T12:11:06.204Z,14.50
2018-07-07T12:12:06.233Z,14.70
2018-07-07T12:13:05.736Z,15.00
2018-07-07T12:14:07.305Z,15.10
2018-07-07T12:15:06.418Z,14.60
2018-07-07T12:16:06.350Z,14.90
2018-07-07T12:17:05.667Z,14.80
2018-07-07T12:18:07.027Z,15.10
2018-07-07T12:19:05.430Z,15.30
2018-07-07T12:20:06.511Z,15.50
2018-07-07T12:21:10.890Z,16.00
2018-07-07T12:22:05.727Z,16.00
2018-07-07T12:23:06.507Z,16.10
2018-07-07T12:24:05.925Z,15.90
2018-07-07T12:25:07.979Z,16.70
2018-07-07T12:26:06.732Z,16.70
2018-07-07T12:27:06.232Z,16.10
2018-07-07T12:28:05.489Z,16.30
2018-07-07T12:29:05.936Z,16.30
2018-07-07T12:30:11.372Z,15.50
2018-07-07T12:31:10.792Z,16.00
2018-07-07T12:32:08.789Z,15.50
2018-07-07T12:33:06.531Z,15.50
2018-07-07T12:34:06.276Z,15.60
2018-07-07T12:35:05.660Z,15.50
2018-07-07T12:36:06.125Z,16.00
2018-07-07T12:37:06.307Z,16.30
2018-07-07T12:38:08.471Z,16.70
2018-07-07T12:39:06.082Z,16.70
2018-07-07T12:40:09.508Z,16.60
2018-07-07T12:41:09.091Z,16.70
2018-07-07T12:42:05.984Z,16.70
2018-07-07T12:43:05.664Z,17.10
2018-07-07T12:44:06.362Z,17.30
2018-07-07T12:45:06.033Z,17.60
2018-07-07T12:46:06.377Z,17.60
2018-07-07T12:47:05.541Z,17.30
2018-07-07T12:48:06.566Z,17.80
2018-07-07T12:49:06.619Z,17.80
2018-07-07T12:50:06.377Z,17.30
2018-07-07T12:51:10.662Z,18.20
2018-07-07T12:52:06.202Z,18.20